sensor_id;sensor_type;location;lat;lon;timestamp;P1;durP1;ratioP1;P2;durP2;ratioP2
11238;SDS011;5677;48.488;13.436;2023-04-16T00:01:00;2.43;;;1.13;;
11238;SDS011;5677;48.488;13.436;2023-04-16T00:03:26;1.20;;;1.10;;
11238;SDS011;5677;48.488;13.436;2023-04-16T00:05:53;1.00;;;1.00;;
11238;SDS011;5677;48.488;13.436;2023-04-16T00:08:20;0.80;;;0.80;;
11238;SDS011;5677;48.488;13.436;2023-04-16T00:10:49;1.13;;;1.07;;
11238;SDS011;5677;48.488;13.436;2023-04-16T00:13:16;1.00;;;1.00;;
11238;SDS011;5677;48.488;13.436;2023-04-16T00:15:43;0.87;;;0.87;;
11238;SDS011;5677;48.488;13.436;2023-04-16T00:18:10;1.20;;;1.03;;
11238;SDS011;5677;48.488;13.436;2023-04-16T00:20:38;1.63;;;1.03;;
11238;SDS011;5677;48.488;13.436;2023-04-16T00:23:04;1.17;;;1.10;;
11238;SDS011;5677;48.488;13.436;2023-04-16T00:25:31;1.47;;;1.37;;
11238;SDS011;5677;48.488;13.436;2023-04-16T00:27:59;1.10;;;1.00;;
11238;SDS011;5677;48.488;13.436;2023-04-16T00:30:26;1.20;;;1.00;;
11238;SDS011;5677;48.488;13.436;2023-04-16T00:32:55;1.10;;;1.10;;
11238;SDS011;5677;48.488;13.436;2023-04-16T00:35:21;0.90;;;0.90;;
11238;SDS011;5677;48.488;13.436;2023-04-16T00:37:48;0.90;;;0.90;;
11238;SDS011;5677;48.488;13.436;2023-04-16T00:40:15;0.90;;;0.90;;
11238;SDS011;5677;48.488;13.436;2023-04-16T00:42:42;1.00;;;1.00;;
11238;SDS011;5677;48.488;13.436;2023-04-16T00:45:10;0.90;;;0.90;;
11238;SDS011;5677;48.488;13.436;2023-04-16T00:47:37;1.30;;;1.20;;
11238;SDS011;5677;48.488;13.436;2023-04-16T00:50:04;1.10;;;1.00;;
11238;SDS011;5677;48.488;13.436;2023-04-16T00:52:32;0.80;;;0.80;;
11238;SDS011;5677;48.488;13.436;2023-04-16T00:54:59;0.80;;;0.80;;
11238;SDS011;5677;48.488;13.436;2023-04-16T00:57:27;1.30;;;1.10;;
11238;SDS011;5677;48.488;13.436;2023-04-16T00:59:53;0.80;;;0.80;;
11238;SDS011;5677;48.488;13.436;2023-04-16T01:02:22;1.00;;;1.00;;
11238;SDS011;5677;48.488;13.436;2023-04-16T01:04:50;1.20;;;1.10;;
11238;SDS011;5677;48.488;13.436;2023-04-16T01:07:17;1.00;;;1.00;;
11238;SDS011;5677;48.488;13.436;2023-04-16T01:09:43;1.00;;;1.00;;
11238;SDS011;5677;48.488;13.436;2023-04-16T01:12:10;1.10;;;1.10;;
11238;SDS011;5677;48.488;13.436;2023-04-16T01:14:37;1.20;;;1.10;;
11238;SDS011;5677;48.488;13.436;2023-04-16T01:17:03;0.93;;;0.87;;
11238;SDS011;5677;48.488;13.436;2023-04-16T01:19:31;1.17;;;1.07;;
11238;SDS011;5677;48.488;13.436;2023-04-16T01:22:01;0.97;;;0.97;;
11238;SDS011;5677;48.488;13.436;2023-04-16T01:24:28;1.00;;;1.00;;
11238;SDS011;5677;48.488;13.436;2023-04-16T01:26:56;1.10;;;1.00;;
11238;SDS011;5677;48.488;13.436;2023-04-16T01:29:23;0.93;;;0.90;;
11238;SDS011;5677;48.488;13.436;2023-04-16T01:31:49;0.90;;;0.90;;
11238;SDS011;5677;48.488;13.436;2023-04-16T01:34:16;1.10;;;1.10;;
11238;SDS011;5677;48.488;13.436;2023-04-16T01:36:43;1.30;;;0.93;;
11238;SDS011;5677;48.488;13.436;2023-04-16T01:39:11;1.33;;;1.10;;
11238;SDS011;5677;48.488;13.436;2023-04-16T01:41:40;1.10;;;1.00;;
11238;SDS011;5677;48.488;13.436;2023-04-16T01:44:07;0.97;;;0.97;;
11238;SDS011;5677;48.488;13.436;2023-04-16T01:46:33;1.00;;;1.00;;
11238;SDS011;5677;48.488;13.436;2023-04-16T01:49:01;1.10;;;1.00;;
11238;SDS011;5677;48.488;13.436;2023-04-16T01:51:29;0.80;;;0.80;;
11238;SDS011;5677;48.488;13.436;2023-04-16T01:53:56;0.80;;;0.80;;
11238;SDS011;5677;48.488;13.436;2023-04-16T01:56:24;0.90;;;0.90;;
11238;SDS011;5677;48.488;13.436;2023-04-16T01:58:51;0.70;;;0.70;;
11238;SDS011;5677;48.488;13.436;2023-04-16T02:01:18;0.87;;;0.87;;
11238;SDS011;5677;48.488;13.436;2023-04-16T02:03:45;0.93;;;0.93;;
11238;SDS011;5677;48.488;13.436;2023-04-16T02:06:12;1.00;;;1.00;;
11238;SDS011;5677;48.488;13.436;2023-04-16T02:08:38;0.90;;;0.90;;
11238;SDS011;5677;48.488;13.436;2023-04-16T02:11:05;1.00;;;1.00;;
11238;SDS011;5677;48.488;13.436;2023-04-16T02:13:33;0.90;;;0.90;;
11238;SDS011;5677;48.488;13.436;2023-04-16T02:16:00;1.63;;;1.30;;
11238;SDS011;5677;48.488;13.436;2023-04-16T02:18:27;0.97;;;0.90;;
11238;SDS011;5677;48.488;13.436;2023-04-16T02:20:54;0.80;;;0.80;;
11238;SDS011;5677;48.488;13.436;2023-04-16T02:23:23;2.10;;;0.80;;
11238;SDS011;5677;48.488;13.436;2023-04-16T02:25:50;0.90;;;0.90;;
11238;SDS011;5677;48.488;13.436;2023-04-16T02:28:17;0.80;;;0.80;;
11238;SDS011;5677;48.488;13.436;2023-04-16T02:30:45;1.93;;;1.10;;
11238;SDS011;5677;48.488;13.436;2023-04-16T02:33:11;1.23;;;1.10;;
11238;SDS011;5677;48.488;13.436;2023-04-16T02:35:38;0.77;;;0.77;;
11238;SDS011;5677;48.488;13.436;2023-04-16T02:38:06;0.80;;;0.80;;
11238;SDS011;5677;48.488;13.436;2023-04-16T02:40:33;1.03;;;0.93;;
11238;SDS011;5677;48.488;13.436;2023-04-16T02:43:00;1.10;;;0.80;;
11238;SDS011;5677;48.488;13.436;2023-04-16T02:45:27;0.90;;;0.90;;
11238;SDS011;5677;48.488;13.436;2023-04-16T02:47:56;1.10;;;1.00;;
11238;SDS011;5677;48.488;13.436;2023-04-16T02:50:23;1.00;;;1.00;;
11238;SDS011;5677;48.488;13.436;2023-04-16T02:52:50;0.90;;;0.90;;
11238;SDS011;5677;48.488;13.436;2023-04-16T02:55:17;1.17;;;1.00;;
11238;SDS011;5677;48.488;13.436;2023-04-16T02:57:44;1.33;;;1.00;;
11238;SDS011;5677;48.488;13.436;2023-04-16T03:00:11;1.80;;;0.90;;
11238;SDS011;5677;48.488;13.436;2023-04-16T03:02:38;0.80;;;0.80;;
11238;SDS011;5677;48.488;13.436;2023-04-16T03:05:06;0.93;;;0.93;;
11238;SDS011;5677;48.488;13.436;2023-04-16T03:07:33;1.10;;;1.00;;
11238;SDS011;5677;48.488;13.436;2023-04-16T03:10:03;1.53;;;1.10;;
11238;SDS011;5677;48.488;13.436;2023-04-16T03:12:30;0.90;;;0.90;;
11238;SDS011;5677;48.488;13.436;2023-04-16T03:14:57;1.47;;;1.10;;
11238;SDS011;5677;48.488;13.436;2023-04-16T03:17:24;1.07;;;1.07;;
11238;SDS011;5677;48.488;13.436;2023-04-16T03:19:51;0.80;;;0.80;;
11238;SDS011;5677;48.488;13.436;2023-04-16T03:22:19;0.90;;;0.90;;
11238;SDS011;5677;48.488;13.436;2023-04-16T03:24:45;1.17;;;1.10;;
11238;SDS011;5677;48.488;13.436;2023-04-16T03:27:12;1.10;;;1.00;;
11238;SDS011;5677;48.488;13.436;2023-04-16T03:29:39;1.27;;;1.00;;
11238;SDS011;5677;48.488;13.436;2023-04-16T03:32:06;1.00;;;1.00;;
11238;SDS011;5677;48.488;13.436;2023-04-16T03:34:32;0.70;;;0.70;;
11238;SDS011;5677;48.488;13.436;2023-04-16T03:37:00;0.93;;;0.93;;
11238;SDS011;5677;48.488;13.436;2023-04-16T03:39:30;1.03;;;0.93;;
11238;SDS011;5677;48.488;13.436;2023-04-16T03:41:57;0.97;;;0.90;;
11238;SDS011;5677;48.488;13.436;2023-04-16T03:44:24;0.80;;;0.80;;
11238;SDS011;5677;48.488;13.436;2023-04-16T03:46:50;0.90;;;0.90;;
11238;SDS011;5677;48.488;13.436;2023-04-16T03:49:17;0.93;;;0.93;;
11238;SDS011;5677;48.488;13.436;2023-04-16T03:51:44;0.73;;;0.73;;
11238;SDS011;5677;48.488;13.436;2023-04-16T03:54:11;1.67;;;0.90;;
11238;SDS011;5677;48.488;13.436;2023-04-16T03:56:39;1.10;;;1.03;;
11238;SDS011;5677;48.488;13.436;2023-04-16T03:59:06;1.43;;;0.93;;
11238;SDS011;5677;48.488;13.436;2023-04-16T04:01:33;1.07;;;1.00;;
11238;SDS011;5677;48.488;13.436;2023-04-16T04:04:00;1.17;;;1.07;;
11238;SDS011;5677;48.488;13.436;2023-04-16T04:06:27;2.13;;;1.20;;
11238;SDS011;5677;48.488;13.436;2023-04-16T04:08:54;1.33;;;1.27;;
11238;SDS011;5677;48.488;13.436;2023-04-16T04:11:20;1.70;;;1.60;;
11238;SDS011;5677;48.488;13.436;2023-04-16T04:13:48;1.57;;;1.47;;
11238;SDS011;5677;48.488;13.436;2023-04-16T04:16:15;1.50;;;1.40;;
11238;SDS011;5677;48.488;13.436;2023-04-16T04:18:42;1.60;;;1.50;;
11238;SDS011;5677;48.488;13.436;2023-04-16T04:21:08;1.70;;;1.60;;
11238;SDS011;5677;48.488;13.436;2023-04-16T04:23:35;1.50;;;1.40;;
11238;SDS011;5677;48.488;13.436;2023-04-16T04:26:02;2.83;;;1.60;;
11238;SDS011;5677;48.488;13.436;2023-04-16T04:28:31;1.80;;;1.40;;
11238;SDS011;5677;48.488;13.436;2023-04-16T04:30:59;1.80;;;1.43;;
11238;SDS011;5677;48.488;13.436;2023-04-16T04:33:27;1.47;;;1.37;;
11238;SDS011;5677;48.488;13.436;2023-04-16T04:35:53;1.53;;;1.43;;
11238;SDS011;5677;48.488;13.436;2023-04-16T04:38:21;1.73;;;1.63;;
11238;SDS011;5677;48.488;13.436;2023-04-16T04:40:49;3.67;;;3.30;;
11238;SDS011;5677;48.488;13.436;2023-04-16T04:43:16;2.83;;;2.63;;
11238;SDS011;5677;48.488;13.436;2023-04-16T04:45:42;2.40;;;2.20;;
11238;SDS011;5677;48.488;13.436;2023-04-16T04:48:11;2.27;;;2.10;;
11238;SDS011;5677;48.488;13.436;2023-04-16T04:50:38;2.77;;;2.00;;
11238;SDS011;5677;48.488;13.436;2023-04-16T04:53:05;2.03;;;1.87;;
11238;SDS011;5677;48.488;13.436;2023-04-16T04:55:34;1.70;;;1.60;;
11238;SDS011;5677;48.488;13.436;2023-04-16T04:58:01;2.03;;;1.83;;
11238;SDS011;5677;48.488;13.436;2023-04-16T05:00:28;1.60;;;1.50;;
11238;SDS011;5677;48.488;13.436;2023-04-16T05:02:55;1.80;;;1.70;;
11238;SDS011;5677;48.488;13.436;2023-04-16T05:05:23;1.70;;;1.60;;
11238;SDS011;5677;48.488;13.436;2023-04-16T05:07:50;1.90;;;1.63;;
11238;SDS011;5677;48.488;13.436;2023-04-16T05:10:16;1.50;;;1.40;;
11238;SDS011;5677;48.488;13.436;2023-04-16T05:12:43;2.00;;;1.50;;
11238;SDS011;5677;48.488;13.436;2023-04-16T05:15:11;1.53;;;1.43;;
11238;SDS011;5677;48.488;13.436;2023-04-16T05:17:38;1.30;;;1.20;;
11238;SDS011;5677;48.488;13.436;2023-04-16T05:20:05;1.60;;;1.50;;
11238;SDS011;5677;48.488;13.436;2023-04-16T05:22:34;1.70;;;1.60;;
11238;SDS011;5677;48.488;13.436;2023-04-16T05:25:01;1.60;;;1.50;;
11238;SDS011;5677;48.488;13.436;2023-04-16T05:27:28;1.70;;;1.33;;
11238;SDS011;5677;48.488;13.436;2023-04-16T05:29:55;1.27;;;1.17;;
11238;SDS011;5677;48.488;13.436;2023-04-16T05:32:23;1.20;;;1.10;;
11238;SDS011;5677;48.488;13.436;2023-04-16T05:34:50;1.10;;;1.10;;
11238;SDS011;5677;48.488;13.436;2023-04-16T05:37:17;1.60;;;1.50;;
11238;SDS011;5677;48.488;13.436;2023-04-16T05:39:45;1.47;;;1.37;;
11238;SDS011;5677;48.488;13.436;2023-04-16T05:42:12;1.40;;;1.30;;
11238;SDS011;5677;48.488;13.436;2023-04-16T05:44:39;0.90;;;0.90;;
11238;SDS011;5677;48.488;13.436;2023-04-16T05:47:05;1.53;;;1.20;;
11238;SDS011;5677;48.488;13.436;2023-04-16T05:49:33;1.10;;;1.10;;
11238;SDS011;5677;48.488;13.436;2023-04-16T05:52:00;1.80;;;1.20;;
11238;SDS011;5677;48.488;13.436;2023-04-16T05:54:27;2.00;;;1.10;;
11238;SDS011;5677;48.488;13.436;2023-04-16T05:56:55;1.50;;;0.90;;
11238;SDS011;5677;48.488;13.436;2023-04-16T05:59:22;1.40;;;1.17;;
11238;SDS011;5677;48.488;13.436;2023-04-16T06:01:48;2.53;;;1.20;;
11238;SDS011;5677;48.488;13.436;2023-04-16T06:04:15;1.20;;;1.10;;
11238;SDS011;5677;48.488;13.436;2023-04-16T06:06:42;0.97;;;0.93;;
11238;SDS011;5677;48.488;13.436;2023-04-16T06:09:09;1.30;;;1.20;;
11238;SDS011;5677;48.488;13.436;2023-04-16T06:11:36;1.30;;;1.20;;
11238;SDS011;5677;48.488;13.436;2023-04-16T06:14:04;1.27;;;1.17;;
11238;SDS011;5677;48.488;13.436;2023-04-16T06:16:31;1.37;;;1.27;;
11238;SDS011;5677;48.488;13.436;2023-04-16T06:18:57;1.57;;;1.20;;
11238;SDS011;5677;48.488;13.436;2023-04-16T06:21:24;1.50;;;1.40;;
11238;SDS011;5677;48.488;13.436;2023-04-16T06:23:51;1.60;;;1.50;;
11238;SDS011;5677;48.488;13.436;2023-04-16T06:26:17;4.07;;;2.43;;
11238;SDS011;5677;48.488;13.436;2023-04-16T06:28:44;5.70;;;5.10;;
11238;SDS011;5677;48.488;13.436;2023-04-16T06:31:12;3.53;;;3.23;;
11238;SDS011;5677;48.488;13.436;2023-04-16T06:33:39;3.43;;;3.13;;
11238;SDS011;5677;48.488;13.436;2023-04-16T06:36:06;3.30;;;2.67;;
11238;SDS011;5677;48.488;13.436;2023-04-16T06:38:33;2.30;;;2.10;;
11238;SDS011;5677;48.488;13.436;2023-04-16T06:40:59;2.30;;;2.10;;
11238;SDS011;5677;48.488;13.436;2023-04-16T06:43:26;3.37;;;2.13;;
11238;SDS011;5677;48.488;13.436;2023-04-16T06:45:53;2.27;;;2.07;;
11238;SDS011;5677;48.488;13.436;2023-04-16T06:48:21;3.07;;;2.00;;
11238;SDS011;5677;48.488;13.436;2023-04-16T06:50:48;2.10;;;1.90;;
11238;SDS011;5677;48.488;13.436;2023-04-16T06:53:15;1.73;;;1.63;;
11238;SDS011;5677;48.488;13.436;2023-04-16T06:55:42;1.87;;;1.67;;
11238;SDS011;5677;48.488;13.436;2023-04-16T06:58:09;1.70;;;1.50;;
11238;SDS011;5677;48.488;13.436;2023-04-16T07:00:35;2.20;;;1.77;;
11238;SDS011;5677;48.488;13.436;2023-04-16T07:03:02;2.70;;;1.33;;
11238;SDS011;5677;48.488;13.436;2023-04-16T07:05:30;1.80;;;1.70;;
11238;SDS011;5677;48.488;13.436;2023-04-16T07:07:57;1.80;;;1.70;;
11238;SDS011;5677;48.488;13.436;2023-04-16T07:10:24;2.27;;;1.53;;
11238;SDS011;5677;48.488;13.436;2023-04-16T07:12:51;1.60;;;1.50;;
11238;SDS011;5677;48.488;13.436;2023-04-16T07:15:18;3.20;;;1.30;;
11238;SDS011;5677;48.488;13.436;2023-04-16T07:17:45;1.60;;;1.50;;
11238;SDS011;5677;48.488;13.436;2023-04-16T07:20:11;1.67;;;1.57;;
11238;SDS011;5677;48.488;13.436;2023-04-16T07:22:39;1.80;;;1.43;;
11238;SDS011;5677;48.488;13.436;2023-04-16T07:25:07;2.07;;;1.30;;
11238;SDS011;5677;48.488;13.436;2023-04-16T07:27:34;1.50;;;1.40;;
11238;SDS011;5677;48.488;13.436;2023-04-16T07:30:01;2.23;;;1.80;;
11238;SDS011;5677;48.488;13.436;2023-04-16T07:32:28;1.70;;;1.20;;
11238;SDS011;5677;48.488;13.436;2023-04-16T07:34:55;1.77;;;1.37;;
11238;SDS011;5677;48.488;13.436;2023-04-16T07:37:22;1.40;;;1.30;;
11238;SDS011;5677;48.488;13.436;2023-04-16T07:39:50;1.37;;;1.20;;
11238;SDS011;5677;48.488;13.436;2023-04-16T07:42:17;1.60;;;1.50;;
11238;SDS011;5677;48.488;13.436;2023-04-16T07:44:43;1.33;;;1.23;;
11238;SDS011;5677;48.488;13.436;2023-04-16T07:47:10;2.10;;;1.40;;
11238;SDS011;5677;48.488;13.436;2023-04-16T07:49:37;1.80;;;1.60;;
11238;SDS011;5677;48.488;13.436;2023-04-16T07:52:04;1.50;;;1.40;;
11238;SDS011;5677;48.488;13.436;2023-04-16T07:54:31;3.97;;;1.70;;
11238;SDS011;5677;48.488;13.436;2023-04-16T07:56:59;3.30;;;1.80;;
11238;SDS011;5677;48.488;13.436;2023-04-16T07:59:26;5.30;;;2.00;;
11238;SDS011;5677;48.488;13.436;2023-04-16T08:01:52;5.60;;;1.63;;
11238;SDS011;5677;48.488;13.436;2023-04-16T08:04:19;5.23;;;2.00;;
11238;SDS011;5677;48.488;13.436;2023-04-16T08:06:48;3.77;;;1.40;;
11238;SDS011;5677;48.488;13.436;2023-04-16T08:09:15;3.83;;;1.80;;
11238;SDS011;5677;48.488;13.436;2023-04-16T08:11:42;3.83;;;2.00;;
11238;SDS011;5677;48.488;13.436;2023-04-16T08:14:10;4.53;;;2.10;;
11238;SDS011;5677;48.488;13.436;2023-04-16T08:16:37;6.60;;;2.27;;
11238;SDS011;5677;48.488;13.436;2023-04-16T08:19:04;5.43;;;1.97;;
11238;SDS011;5677;48.488;13.436;2023-04-16T08:21:31;2.73;;;1.80;;
11238;SDS011;5677;48.488;13.436;2023-04-16T08:23:58;5.30;;;2.50;;
11238;SDS011;5677;48.488;13.436;2023-04-16T08:26:25;2.77;;;2.43;;
11238;SDS011;5677;48.488;13.436;2023-04-16T08:28:52;6.33;;;2.07;;
11238;SDS011;5677;48.488;13.436;2023-04-16T08:31:20;3.10;;;2.47;;
11238;SDS011;5677;48.488;13.436;2023-04-16T08:33:47;3.27;;;1.90;;
11238;SDS011;5677;48.488;13.436;2023-04-16T08:36:13;2.13;;;1.40;;
11238;SDS011;5677;48.488;13.436;2023-04-16T08:38:40;2.17;;;1.63;;
11238;SDS011;5677;48.488;13.436;2023-04-16T08:41:08;6.30;;;4.30;;
11238;SDS011;5677;48.488;13.436;2023-04-16T08:43:38;7.40;;;4.83;;
11238;SDS011;5677;48.488;13.436;2023-04-16T08:46:09;11.23;;;6.47;;
11238;SDS011;5677;48.488;13.436;2023-04-16T08:48:37;13.47;;;7.93;;
11238;SDS011;5677;48.488;13.436;2023-04-16T08:51:08;10.97;;;7.67;;
11238;SDS011;5677;48.488;13.436;2023-04-16T08:53:40;12.00;;;7.57;;
11238;SDS011;5677;48.488;13.436;2023-04-16T08:56:13;11.13;;;7.73;;
11238;SDS011;5677;48.488;13.436;2023-04-16T08:58:44;11.70;;;8.47;;
11238;SDS011;5677;48.488;13.436;2023-04-16T09:01:12;14.30;;;8.97;;
11238;SDS011;5677;48.488;13.436;2023-04-16T09:03:42;17.67;;;9.83;;
11238;SDS011;5677;48.488;13.436;2023-04-16T09:06:12;16.60;;;10.30;;
11238;SDS011;5677;48.488;13.436;2023-04-16T09:08:39;18.27;;;11.77;;
11238;SDS011;5677;48.488;13.436;2023-04-16T09:11:08;15.60;;;11.80;;
11238;SDS011;5677;48.488;13.436;2023-04-16T09:13:36;16.40;;;11.90;;
11238;SDS011;5677;48.488;13.436;2023-04-16T09:16:04;20.73;;;12.33;;
11238;SDS011;5677;48.488;13.436;2023-04-16T09:18:32;18.43;;;11.93;;
11238;SDS011;5677;48.488;13.436;2023-04-16T09:21:00;17.63;;;10.67;;
11238;SDS011;5677;48.488;13.436;2023-04-16T09:23:28;17.90;;;11.63;;
11238;SDS011;5677;48.488;13.436;2023-04-16T09:25:56;13.00;;;10.20;;
11238;SDS011;5677;48.488;13.436;2023-04-16T09:28:39;17.60;;;10.43;;
11238;SDS011;5677;48.488;13.436;2023-04-16T09:31:07;13.13;;;9.70;;
11238;SDS011;5677;48.488;13.436;2023-04-16T09:33:35;13.03;;;9.00;;
11238;SDS011;5677;48.488;13.436;2023-04-16T09:36:04;14.10;;;9.00;;
11238;SDS011;5677;48.488;13.436;2023-04-16T09:41:23;9.63;;;7.03;;
11238;SDS011;5677;48.488;13.436;2023-04-16T09:43:54;9.20;;;6.40;;
11238;SDS011;5677;48.488;13.436;2023-04-16T09:46:22;11.73;;;7.27;;
11238;SDS011;5677;48.488;13.436;2023-04-16T09:48:50;9.53;;;6.90;;
11238;SDS011;5677;48.488;13.436;2023-04-16T09:51:18;9.67;;;6.63;;
11238;SDS011;5677;48.488;13.436;2023-04-16T09:53:45;10.50;;;6.33;;
11238;SDS011;5677;48.488;13.436;2023-04-16T09:56:12;9.37;;;6.00;;
11238;SDS011;5677;48.488;13.436;2023-04-16T09:58:38;11.23;;;5.67;;
11238;SDS011;5677;48.488;13.436;2023-04-16T10:01:06;9.33;;;5.53;;
11238;SDS011;5677;48.488;13.436;2023-04-16T10:03:34;8.97;;;5.57;;
11238;SDS011;5677;48.488;13.436;2023-04-16T10:06:06;8.13;;;5.03;;
11238;SDS011;5677;48.488;13.436;2023-04-16T10:08:35;8.90;;;5.13;;
11238;SDS011;5677;48.488;13.436;2023-04-16T10:11:02;8.00;;;5.00;;
11238;SDS011;5677;48.488;13.436;2023-04-16T10:13:29;7.37;;;4.60;;
11238;SDS011;5677;48.488;13.436;2023-04-16T10:15:57;7.17;;;4.50;;
11238;SDS011;5677;48.488;13.436;2023-04-16T10:18:24;6.73;;;3.97;;
11238;SDS011;5677;48.488;13.436;2023-04-16T10:20:52;6.37;;;3.80;;
11238;SDS011;5677;48.488;13.436;2023-04-16T10:23:20;5.43;;;4.43;;
11238;SDS011;5677;48.488;13.436;2023-04-16T10:25:49;4.77;;;3.60;;
11238;SDS011;5677;48.488;13.436;2023-04-16T10:28:16;6.27;;;3.60;;
11238;SDS011;5677;48.488;13.436;2023-04-16T10:30:43;11.10;;;3.23;;
11238;SDS011;5677;48.488;13.436;2023-04-16T10:33:17;7.80;;;3.43;;
11238;SDS011;5677;48.488;13.436;2023-04-16T10:35:46;6.33;;;3.27;;
11238;SDS011;5677;48.488;13.436;2023-04-16T10:38:23;7.93;;;3.43;;
11238;SDS011;5677;48.488;13.436;2023-04-16T10:40:58;6.67;;;2.43;;
11238;SDS011;5677;48.488;13.436;2023-04-16T10:43:27;7.77;;;3.20;;
11238;SDS011;5677;48.488;13.436;2023-04-16T10:45:55;10.77;;;3.00;;
11238;SDS011;5677;48.488;13.436;2023-04-16T10:48:22;4.80;;;3.23;;
11238;SDS011;5677;48.488;13.436;2023-04-16T10:50:53;10.10;;;3.03;;
11238;SDS011;5677;48.488;13.436;2023-04-16T10:53:25;3.03;;;2.63;;
11238;SDS011;5677;48.488;13.436;2023-04-16T10:56:10;2.73;;;2.47;;
11238;SDS011;5677;48.488;13.436;2023-04-16T10:58:37;4.43;;;3.07;;
11238;SDS011;5677;48.488;13.436;2023-04-16T11:01:09;2.73;;;2.43;;
11238;SDS011;5677;48.488;13.436;2023-04-16T11:03:45;4.30;;;2.60;;
11238;SDS011;5677;48.488;13.436;2023-04-16T11:06:13;3.37;;;2.57;;
11238;SDS011;5677;48.488;13.436;2023-04-16T11:08:42;3.73;;;2.70;;
11238;SDS011;5677;48.488;13.436;2023-04-16T11:11:12;2.97;;;2.37;;
11238;SDS011;5677;48.488;13.436;2023-04-16T11:13:41;3.90;;;2.17;;
11238;SDS011;5677;48.488;13.436;2023-04-16T11:16:09;1.80;;;1.70;;
11238;SDS011;5677;48.488;13.436;2023-04-16T11:18:36;3.20;;;1.90;;
11238;SDS011;5677;48.488;13.436;2023-04-16T11:21:06;2.20;;;2.00;;
11238;SDS011;5677;48.488;13.436;2023-04-16T11:23:43;3.03;;;1.83;;
11238;SDS011;5677;48.488;13.436;2023-04-16T11:26:20;3.90;;;2.00;;
11238;SDS011;5677;48.488;13.436;2023-04-16T11:28:51;9.50;;;2.90;;
11238;SDS011;5677;48.488;13.436;2023-04-16T11:31:19;3.97;;;2.60;;
11238;SDS011;5677;48.488;13.436;2023-04-16T11:33:47;11.27;;;2.80;;
11238;SDS011;5677;48.488;13.436;2023-04-16T11:36:13;4.70;;;2.33;;
11238;SDS011;5677;48.488;13.436;2023-04-16T11:38:40;1.90;;;1.70;;
11238;SDS011;5677;48.488;13.436;2023-04-16T11:41:07;7.50;;;2.00;;
11238;SDS011;5677;48.488;13.436;2023-04-16T11:43:36;4.20;;;1.80;;
11238;SDS011;5677;48.488;13.436;2023-04-16T11:46:04;2.60;;;2.40;;
11238;SDS011;5677;48.488;13.436;2023-04-16T11:48:50;4.37;;;2.53;;
11238;SDS011;5677;48.488;13.436;2023-04-16T11:51:18;4.60;;;2.50;;
11238;SDS011;5677;48.488;13.436;2023-04-16T11:53:47;3.80;;;1.83;;
11238;SDS011;5677;48.488;13.436;2023-04-16T11:56:15;1.70;;;1.60;;
11238;SDS011;5677;48.488;13.436;2023-04-16T12:01:35;1.60;;;1.40;;
11238;SDS011;5677;48.488;13.436;2023-04-16T12:04:02;1.83;;;1.40;;
11238;SDS011;5677;48.488;13.436;2023-04-16T12:06:29;2.70;;;1.50;;
11238;SDS011;5677;48.488;13.436;2023-04-16T12:08:57;4.03;;;1.53;;
11238;SDS011;5677;48.488;13.436;2023-04-16T12:11:36;2.33;;;1.80;;
11238;SDS011;5677;48.488;13.436;2023-04-16T12:14:08;2.13;;;1.70;;
11238;SDS011;5677;48.488;13.436;2023-04-16T12:16:35;2.57;;;1.73;;
11238;SDS011;5677;48.488;13.436;2023-04-16T12:19:02;1.40;;;1.30;;
11238;SDS011;5677;48.488;13.436;2023-04-16T12:21:37;2.23;;;1.40;;
11238;SDS011;5677;48.488;13.436;2023-04-16T12:24:05;1.40;;;1.10;;
11238;SDS011;5677;48.488;13.436;2023-04-16T12:26:36;2.03;;;1.10;;
11238;SDS011;5677;48.488;13.436;2023-04-16T12:29:16;2.20;;;1.27;;
11238;SDS011;5677;48.488;13.436;2023-04-16T12:31:47;1.83;;;1.30;;
11238;SDS011;5677;48.488;13.436;2023-04-16T12:34:15;2.43;;;1.20;;
11238;SDS011;5677;48.488;13.436;2023-04-16T12:36:42;3.30;;;1.33;;
11238;SDS011;5677;48.488;13.436;2023-04-16T12:39:10;1.30;;;1.20;;
11238;SDS011;5677;48.488;13.436;2023-04-16T12:41:38;3.67;;;1.53;;
11238;SDS011;5677;48.488;13.436;2023-04-16T12:44:06;2.70;;;1.33;;
11238;SDS011;5677;48.488;13.436;2023-04-16T12:46:37;1.93;;;0.93;;
11238;SDS011;5677;48.488;13.436;2023-04-16T12:49:04;1.10;;;1.00;;
11238;SDS011;5677;48.488;13.436;2023-04-16T12:51:31;1.50;;;1.10;;
11238;SDS011;5677;48.488;13.436;2023-04-16T12:53:59;1.17;;;0.97;;
11238;SDS011;5677;48.488;13.436;2023-04-16T12:56:26;1.37;;;1.20;;
11238;SDS011;5677;48.488;13.436;2023-04-16T12:58:53;2.00;;;1.40;;
11238;SDS011;5677;48.488;13.436;2023-04-16T13:01:20;1.50;;;1.37;;
11238;SDS011;5677;48.488;13.436;2023-04-16T13:03:48;1.60;;;1.10;;
11238;SDS011;5677;48.488;13.436;2023-04-16T13:06:16;1.20;;;1.10;;
11238;SDS011;5677;48.488;13.436;2023-04-16T13:08:43;1.00;;;0.90;;
11238;SDS011;5677;48.488;13.436;2023-04-16T13:11:10;3.13;;;1.20;;
11238;SDS011;5677;48.488;13.436;2023-04-16T13:13:37;1.07;;;0.97;;
11238;SDS011;5677;48.488;13.436;2023-04-16T13:16:04;1.53;;;1.17;;
11238;SDS011;5677;48.488;13.436;2023-04-16T13:18:32;1.40;;;1.30;;
11238;SDS011;5677;48.488;13.436;2023-04-16T13:21:01;1.20;;;1.10;;
11238;SDS011;5677;48.488;13.436;2023-04-16T13:23:28;1.20;;;1.10;;
11238;SDS011;5677;48.488;13.436;2023-04-16T13:25:54;1.33;;;1.10;;
11238;SDS011;5677;48.488;13.436;2023-04-16T13:28:21;1.37;;;1.10;;
11238;SDS011;5677;48.488;13.436;2023-04-16T13:30:48;2.13;;;1.10;;
11238;SDS011;5677;48.488;13.436;2023-04-16T13:33:16;3.50;;;1.10;;
11238;SDS011;5677;48.488;13.436;2023-04-16T13:35:43;1.80;;;1.20;;
11238;SDS011;5677;48.488;13.436;2023-04-16T13:38:11;1.33;;;1.10;;
11238;SDS011;5677;48.488;13.436;2023-04-16T13:40:38;1.40;;;1.30;;
11238;SDS011;5677;48.488;13.436;2023-04-16T13:43:04;1.37;;;1.20;;
11238;SDS011;5677;48.488;13.436;2023-04-16T13:45:31;1.13;;;1.03;;
11238;SDS011;5677;48.488;13.436;2023-04-16T13:47:58;1.30;;;1.20;;
11238;SDS011;5677;48.488;13.436;2023-04-16T13:50:26;1.53;;;1.10;;
11238;SDS011;5677;48.488;13.436;2023-04-16T13:52:53;1.10;;;1.00;;
11238;SDS011;5677;48.488;13.436;2023-04-16T13:55:21;1.37;;;1.00;;
11238;SDS011;5677;48.488;13.436;2023-04-16T13:57:48;0.90;;;0.90;;
11238;SDS011;5677;48.488;13.436;2023-04-16T14:00:16;2.10;;;0.97;;
11238;SDS011;5677;48.488;13.436;2023-04-16T14:02:43;1.43;;;0.90;;
11238;SDS011;5677;48.488;13.436;2023-04-16T14:05:12;1.20;;;1.10;;
11238;SDS011;5677;48.488;13.436;2023-04-16T14:07:39;1.57;;;1.03;;
11238;SDS011;5677;48.488;13.436;2023-04-16T14:10:07;1.47;;;1.00;;
11238;SDS011;5677;48.488;13.436;2023-04-16T14:12:36;1.20;;;1.10;;
11238;SDS011;5677;48.488;13.436;2023-04-16T14:15:04;1.57;;;1.20;;
11238;SDS011;5677;48.488;13.436;2023-04-16T14:17:33;1.00;;;0.90;;
11238;SDS011;5677;48.488;13.436;2023-04-16T14:20:00;1.90;;;1.13;;
11238;SDS011;5677;48.488;13.436;2023-04-16T14:22:27;1.47;;;1.00;;
11238;SDS011;5677;48.488;13.436;2023-04-16T14:24:54;1.67;;;1.10;;
11238;SDS011;5677;48.488;13.436;2023-04-16T14:27:21;1.00;;;1.00;;
11238;SDS011;5677;48.488;13.436;2023-04-16T14:29:49;0.90;;;0.90;;
11238;SDS011;5677;48.488;13.436;2023-04-16T14:32:16;1.40;;;0.97;;
11238;SDS011;5677;48.488;13.436;2023-04-16T14:34:43;1.17;;;0.80;;
11238;SDS011;5677;48.488;13.436;2023-04-16T14:37:09;0.97;;;0.83;;
11238;SDS011;5677;48.488;13.436;2023-04-16T14:39:36;0.90;;;0.90;;
11238;SDS011;5677;48.488;13.436;2023-04-16T14:42:03;1.00;;;1.00;;
11238;SDS011;5677;48.488;13.436;2023-04-16T14:44:30;0.93;;;0.93;;
11238;SDS011;5677;48.488;13.436;2023-04-16T14:46:58;0.90;;;0.90;;
11238;SDS011;5677;48.488;13.436;2023-04-16T14:49:25;0.90;;;0.90;;
11238;SDS011;5677;48.488;13.436;2023-04-16T14:51:52;1.40;;;1.00;;
11238;SDS011;5677;48.488;13.436;2023-04-16T14:54:18;1.30;;;1.20;;